Time;durP1;ratioP1;P1;durP2;ratioP2;P2;SDS_P1;SDS_P2;PMS_P1;PMS_P2;Temp;Humidity;BMP_temperature;BMP_pressure;BME280_temperature;BME280_humidity;BME280_pressure;Samples;Min_cycle;Max_cycle;Signal;HPM_P1;HPM_P2
2021/09/17 00:00:54;;;;;;;12.45;4.32;;;13.50;99.90;;;;;;5095857;28;19922;-59
2021/09/17 00:03:21;;;;;;;;;;;13.40;99.90;;;;;;5100617;28;20415;-59
2021/09/17 00:05:47;;;;;;;4.85;3.05;;;13.50;99.90;;;;;;5101775;28;19974;-57
2021/09/17 00:08:12;;;;;;;;;;;13.50;99.90;;;;;;5102539;28;20071;-59
2021/09/17 00:10:38;;;;;;;10.48;2.92;;;13.50;99.90;;;;;;5100817;28;19916;-59
2021/09/17 00:13:03;;;;;;;;;;;13.50;99.90;;;;;;5103524;28;20124;-59
2021/09/17 00:15:29;;;;;;;6.05;3.92;;;13.50;99.90;;;;;;5102142;28;19988;-59
2021/09/17 00:17:56;;;;;;;;;;;13.50;99.90;;;;;;5092943;28;20044;-59
2021/09/17 00:20:22;;;;;;;6.25;3.97;;;13.50;99.90;;;;;;5088968;28;20036;-59
2021/09/17 00:22:48;;;;;;;7.60;3.92;;;13.50;99.90;;;;;;5088751;28;20048;-58
2021/09/17 00:25:14;;;;;;;;;;;13.50;99.90;;;;;;5087319;28;20024;-58
2021/09/17 00:27:40;;;;;;;6.75;4.25;;;13.50;99.90;;;;;;5089175;28;20427;-58
2021/09/17 00:30:05;;;;;;;;;;;13.50;99.90;;;;;;5088986;28;20150;-58
2021/09/17 00:32:31;;;;;;;5.95;3.58;;;13.60;99.90;;;;;;5088258;28;20430;-58
2021/09/17 00:34:57;;;;;;;;;;;13.60;99.90;;;;;;5089937;28;20131;-59
2021/09/17 00:37:22;;;;;;;4.82;2.88;;;13.50;99.90;;;;;;5089387;28;19974;-56
2021/09/17 00:39:47;;;;;;;;;;;13.50;99.90;;;;;;5088756;28;20040;-58
2021/09/17 00:42:13;;;;;;;7.95;3.75;;;13.50;99.90;;;;;;5093755;28;19915;-58
2021/09/17 00:44:38;;;;;;;;;;;13.50;99.90;;;;;;5089539;28;20035;-59
2021/09/17 00:47:04;;;;;;;6.45;3.53;;;13.50;99.90;;;;;;5088291;28;19951;-58
2021/09/17 00:49:30;;;;;;;;;;;13.40;99.90;;;;;;5088495;28;20036;-59
2021/09/17 00:51:55;;;;;;;7.32;4.13;;;13.50;99.90;;;;;;5087663;28;20007;-58
2021/09/17 00:54:21;;;;;;;;;;;13.50;99.90;;;;;;5088846;28;20084;-58
2021/09/17 00:56:47;;;;;;;10.13;4.80;;;13.50;99.90;;;;;;5088436;28;20249;-58
2021/09/17 00:59:12;;;;;;;;;;;13.50;99.90;;;;;;5087435;28;20087;-59
2021/09/17 01:01:39;;;;;;;9.15;4.95;;;13.50;99.90;;;;;;5085991;28;19959;-58
2021/09/17 01:04:05;;;;;;;8.73;4.43;;;13.50;99.90;;;;;;5088482;28;20719;-58
2021/09/17 01:06:31;;;;;;;11.00;6.22;;;13.60;99.90;;;;;;5088306;28;20503;-58
2021/09/17 01:08:57;;;;;;;;;;;13.50;99.90;;;;;;5088809;28;20051;-58
2021/09/17 01:11:23;;;;;;;11.82;6.43;;;13.50;99.90;;;;;;5086407;28;19920;-59
2021/09/17 01:13:49;;;;;;;15.93;7.00;;;13.40;99.90;;;;;;5088584;28;20043;-59
2021/09/17 01:16:15;;;;;;;10.15;6.45;;;13.50;99.90;;;;;;5088632;28;20047;-59
2021/09/17 01:18:40;;;;;;;;;;;13.50;99.90;;;;;;5088699;28;20127;-59
2021/09/17 01:21:06;;;;;;;10.43;6.50;;;13.50;99.90;;;;;;5086871;28;19960;-59
2021/09/17 01:23:31;;;;;;;;;;;13.50;99.90;;;;;;5088538;28;20051;-59
2021/09/17 01:25:57;;;;;;;14.52;6.38;;;13.50;99.90;;;;;;5087813;28;19931;-59
2021/09/17 01:28:27;;;;;;;;;;;13.50;99.90;;;;;;5088091;28;20553;-59
2021/09/17 01:30:52;;;;;;;15.65;7.22;;;13.50;99.90;;;;;;5085985;28;19916;-59
2021/09/17 01:33:18;;;;;;;;;;;13.50;99.90;;;;;;5087879;28;20039;-58
2021/09/17 01:35:43;;;;;;;11.77;6.57;;;13.50;99.90;;;;;;5088165;28;20034;-58
2021/09/17 01:38:09;;;;;;;;;;;13.50;99.90;;;;;;5088433;28;20039;-58
2021/09/17 01:40:35;;;;;;;11.13;6.75;;;13.40;99.90;;;;;;5086376;28;20351;-59
2021/09/17 01:43:00;;;;;;;;;;;13.50;99.90;;;;;;5087981;28;20047;-59
2021/09/17 01:45:26;;;;;;;14.13;5.85;;;13.50;99.90;;;;;;5086133;28;19923;-58
2021/09/17 01:47:52;;;;;;;;;;;13.50;99.90;;;;;;5086871;28;20043;-59
2021/09/17 01:50:17;;;;;;;10.00;6.43;;;13.50;99.90;;;;;;5086069;28;20341;-58
2021/09/17 01:52:43;;;;;;;;;;;13.50;99.90;;;;;;5087566;28;20032;-59
2021/09/17 01:55:10;;;;;;;11.25;6.43;;;13.50;99.90;;;;;;5087393;28;19923;-59
2021/09/17 01:57:35;;;;;;;18.27;8.05;;;13.50;99.90;;;;;;5086785;28;20522;-59
2021/09/17 02:00:02;;;;;;;;;;;13.50;99.90;;;;;;5087331;28;20032;-58
2021/09/17 02:02:28;;;;;;;13.60;7.32;;;13.50;99.90;;;;;;5086013;28;19926;-58
2021/09/17 02:04:53;;;;;;;;;;;13.50;99.90;;;;;;5085090;28;20509;-58
2021/09/17 02:07:19;;;;;;;14.55;8.48;;;13.60;99.90;;;;;;5086558;28;20015;-59
2021/09/17 02:09:44;;;;;;;;;;;13.60;99.90;;;;;;5086631;28;20048;-59
2021/09/17 02:12:10;;;;;;;13.43;7.97;;;13.60;99.90;;;;;;5086521;28;19961;-59
2021/09/17 02:14:38;;;;;;;;;;;13.60;99.90;;;;;;5087015;28;20059;-58
2021/09/17 02:17:04;;;;;;;13.45;8.27;;;13.60;99.90;;;;;;5086730;28;19920;-59
2021/09/17 02:19:29;;;;;;;;;;;13.60;99.90;;;;;;5086163;28;20553;-58
2021/09/17 02:21:55;;;;;;;14.95;8.98;;;13.60;99.90;;;;;;5085825;28;19927;-57
2021/09/17 02:24:22;;;;;;;13.50;8.05;;;13.60;99.90;;;;;;5086153;28;20427;-57
2021/09/17 02:26:47;;;;;;;16.45;7.65;;;13.60;99.90;;;;;;5086501;28;20055;-58
2021/09/17 02:29:13;;;;;;;;;;;13.60;99.90;;;;;;5087210;28;20036;-58
2021/09/17 02:31:39;;;;;;;13.82;7.68;;;13.50;99.90;;;;;;5077818;28;19965;-59
2021/09/17 02:34:04;;;;;;;;;;;13.50;99.90;;;;;;5086816;28;20031;-59
2021/09/17 02:36:30;;;;;;;15.98;8.60;;;13.50;99.90;;;;;;5086640;28;19915;-59
2021/09/17 02:38:55;;;;;;;;;;;13.60;99.90;;;;;;5086754;28;20094;-58
2021/09/17 02:41:21;;;;;;;19.33;9.20;;;13.50;99.90;;;;;;5084436;28;20383;-58
2021/09/17 02:43:46;;;;;;;;;;;13.50;99.90;;;;;;5086635;28;20040;-58
2021/09/17 02:46:12;;;;;;;14.40;8.43;;;13.50;99.90;;;;;;5087493;28;19998;-58
2021/09/17 02:48:38;;;;;;;;;;;13.50;99.90;;;;;;5086324;28;20040;-58
2021/09/17 02:51:03;;;;;;;17.70;9.75;;;13.50;99.90;;;;;;5084654;28;19920;-59
2021/09/17 02:53:29;;;;;;;;;;;13.60;99.90;;;;;;5086793;28;20074;-58
2021/09/17 02:55:54;;;;;;;17.08;10.05;;;13.50;99.90;;;;;;5085870;28;19919;-56
2021/09/17 02:58:20;;;;;;;;;;;13.60;99.90;;;;;;5086814;28;20055;-58
2021/09/17 03:00:45;;;;;;;16.25;10.77;;;13.60;99.90;;;;;;5080173;28;19916;-58
2021/09/17 03:03:11;;;;;;;;;;;13.50;99.90;;;;;;5083448;28;20044;-58
2021/09/17 03:05:37;;;;;;;14.82;9.18;;;13.50;99.90;;;;;;5086093;28;19920;-56
2021/09/17 03:08:02;;;;;;;;;;;13.60;99.90;;;;;;5086381;28;20907;-58
2021/09/17 03:10:28;;;;;;;17.65;9.90;;;13.50;99.90;;;;;;5084513;28;20341;-58
2021/09/17 03:12:53;;;;;;;;;;;13.50;99.90;;;;;;5086180;28;20040;-58
2021/09/17 03:15:19;;;;;;;17.58;10.57;;;13.60;99.90;;;;;;5085160;28;19916;-59
2021/09/17 03:17:44;;;;;;;;;;;13.60;99.90;;;;;;5087060;28;20170;-59
2021/09/17 03:20:10;;;;;;;14.77;10.07;;;13.60;99.90;;;;;;5084561;28;19969;-58
2021/09/17 03:22:36;;;;;;;16.85;10.65;;;13.50;99.90;;;;;;5085864;28;20374;-59
2021/09/17 03:25:02;;;;;;;;;;;13.50;99.90;;;;;;5086003;28;20051;-59
2021/09/17 03:27:28;;;;;;;20.30;10.88;;;13.40;99.90;;;;;;5086217;28;19987;-58
2021/09/17 03:29:53;;;;;;;;;;;13.40;99.90;;;;;;5085324;28;20124;-59
2021/09/17 03:32:19;;;;;;;14.80;9.88;;;13.50;99.90;;;;;;5084248;28;20363;-59
2021/09/17 03:34:45;;;;;;;;;;;13.50;99.90;;;;;;5086198;28;20068;-57
2021/09/17 03:37:12;;;;;;;18.33;10.53;;;13.50;99.90;;;;;;5084820;28;20002;-58
2021/09/17 03:39:37;;;;;;;22.58;12.48;;;13.50;99.90;;;;;;5084284;28;20848;-58
2021/09/17 03:42:03;;;;;;;;;;;13.50;99.90;;;;;;5083910;28;20123;-57
2021/09/17 03:44:28;;;;;;;20.33;11.90;;;13.40;99.90;;;;;;5085975;28;20027;-59
2021/09/17 03:46:54;;;;;;;;;;;13.40;99.90;;;;;;5085787;28;20804;-58
2021/09/17 03:49:20;;;;;;;20.67;11.82;;;13.50;99.90;;;;;;5086020;28;20423;-58
2021/09/17 03:51:46;;;;;;;18.98;12.20;;;13.40;99.90;;;;;;5084260;28;20035;-57
2021/09/17 03:54:11;;;;;;;;;;;13.40;99.90;;;;;;5089839;28;20462;-58
2021/09/17 03:56:37;;;;;;;17.65;11.70;;;13.50;99.90;;;;;;5089390;28;19923;-58
2021/09/17 03:59:02;;;;;;;;;;;13.50;99.90;;;;;;5089306;28;20035;-58
2021/09/17 04:01:28;;;;;;;20.05;11.32;;;13.50;99.90;;;;;;5086708;28;19955;-57
2021/09/17 04:03:53;;;;;;;;;;;13.50;99.90;;;;;;5089941;28;20050;-58
2021/09/17 04:06:19;;;;;;;17.05;9.60;;;13.50;99.90;;;;;;5088976;28;19924;-58
2021/09/17 04:08:44;;;;;;;;;;;13.50;99.90;;;;;;5090297;28;20054;-57
2021/09/17 04:11:10;;;;;;;17.10;10.57;;;13.50;99.90;;;;;;5087868;28;19955;-58
2021/09/17 04:13:35;;;;;;;;;;;13.50;99.90;;;;;;5089837;28;20032;-57
2021/09/17 04:16:01;;;;;;;20.27;12.23;;;13.50;99.90;;;;;;5089084;28;19944;-58
2021/09/17 04:18:26;;;;;;;;;;;13.50;99.90;;;;;;5090375;28;20044;-58
2021/09/17 04:20:52;;;;;;;25.20;14.30;;;13.50;99.90;;;;;;5088773;28;19920;-58
2021/09/17 04:23:18;;;;;;;;;;;13.50;99.90;;;;;;5089956;28;20135;-59
2021/09/17 04:25:43;;;;;;;20.30;13.35;;;13.50;99.90;;;;;;5089226;28;19960;-59
2021/09/17 04:28:08;;;;;;;;;;;13.50;99.90;;;;;;5090232;28;20082;-58
2021/09/17 04:30:34;;;;;;;26.95;16.45;;;13.50;99.90;;;;;;5087804;28;20007;-58
2021/09/17 04:33:00;;;;;;;;;;;13.50;99.90;;;;;;5090065;28;20399;-58
2021/09/17 04:35:26;;;;;;;26.23;16.33;;;13.50;99.90;;;;;;5088986;28;19912;-58
2021/09/17 04:37:56;;;;;;;;;;;13.50;99.90;;;;;;5089966;28;20505;-58
2021/09/17 04:40:22;;;;;;;31.60;19.23;;;13.40;99.90;;;;;;5088327;28;19916;-57
2021/09/17 04:42:48;;;;;;;35.88;20.13;;;13.50;99.90;;;;;;5089148;28;20557;-56
2021/09/17 04:45:13;;;;;;;;;;;13.40;99.90;;;;;;5089296;28;20032;-57
2021/09/17 04:47:39;;;;;;;35.35;17.02;;;13.50;99.90;;;;;;5089088;28;20660;-57
2021/09/17 04:50:06;;;;;;;;;;;13.40;99.90;;;;;;5088896;28;20096;-58
2021/09/17 04:52:31;;;;;;;27.37;17.10;;;13.40;99.90;;;;;;5088972;28;20387;-58
2021/09/17 04:54:59;;;;;;;;;;;13.50;99.90;;;;;;5090571;28;20270;-58
2021/09/17 04:57:28;;;;;;;37.47;21.90;;;13.40;99.90;;;;;;5089165;28;19916;-59
2021/09/17 04:59:54;;;;;;;34.67;21.50;;;13.40;99.90;;;;;;5087285;28;20511;-58
2021/09/17 05:02:20;;;;;;;37.45;22.20;;;13.50;99.90;;;;;;5081770;28;20040;-57
2021/09/17 05:04:46;;;;;;;;;;;13.50;99.90;;;;;;5088834;28;20531;-57
2021/09/17 05:07:11;;;;;;;47.35;22.13;;;13.50;99.90;;;;;;5087708;28;19931;-59
2021/09/17 05:09:37;;;;;;;;;;;13.50;99.90;;;;;;5088439;28;20036;-58
2021/09/17 05:12:04;;;;;;;37.40;20.45;;;13.50;99.90;;;;;;5087105;28;19946;-59
2021/09/17 05:14:30;;;;;;;27.38;16.75;;;13.40;99.90;;;;;;5088291;28;20044;-59
2021/09/17 05:16:55;;;;;;;;;;;13.40;99.90;;;;;;5087790;28;20096;-59
2021/09/17 05:19:23;;;;;;;32.85;18.02;;;13.40;99.90;;;;;;5087850;28;19916;-59
2021/09/17 05:21:54;;;;;;;30.83;19.23;;;13.50;99.90;;;;;;5085593;28;20731;-58
2021/09/17 05:24:23;;;;;;;37.72;21.77;;;13.50;99.90;;;;;;5087984;28;20040;-58
2021/09/17 05:26:50;;;;;;;44.05;24.40;;;13.50;99.90;;;;;;5089183;28;20044;-58
2021/09/17 05:29:16;;;;;;;45.92;24.73;;;13.50;99.90;;;;;;5087787;28;20212;-59
2021/09/17 05:31:42;;;;;;;46.22;26.10;;;13.40;99.90;;;;;;5085662;28;20050;-58
2021/09/17 05:34:07;;;;;;;;;;;13.50;99.90;;;;;;5088107;28;20032;-60
2021/09/17 05:36:33;;;;;;;44.75;25.88;;;13.50;99.90;;;;;;5087697;28;20012;-59
2021/09/17 05:38:59;;;;;;;;;;;13.50;99.90;;;;;;5088351;28;20119;-59
2021/09/17 05:41:25;;;;;;;50.28;27.67;;;13.50;99.90;;;;;;5085571;28;20294;-58
2021/09/17 05:43:51;;;;;;;;;;;13.50;99.90;;;;;;5088264;28;20048;-57
2021/09/17 05:46:17;;;;;;;51.85;28.88;;;13.50;99.90;;;;;;5086686;28;19919;-58
2021/09/17 05:48:42;;;;;;;;;;;13.40;99.90;;;;;;5087918;28;20127;-60
2021/09/17 05:51:08;;;;;;;48.60;28.40;;;13.40;99.90;;;;;;5086471;28;20006;-59
2021/09/17 05:53:33;;;;;;;;;;;13.50;99.90;;;;;;5087956;28;20115;-60
2021/09/17 05:55:59;;;;;;;43.90;26.67;;;13.50;99.90;;;;;;5087506;28;20308;-59
2021/09/17 05:58:30;;;;;;;;;;;13.50;99.90;;;;;;5088303;28;20035;-60
2021/09/17 06:00:56;;;;;;;51.17;29.40;;;13.50;99.90;;;;;;5079985;28;19916;-61
2021/09/17 06:03:22;;;;;;;60.58;33.72;;;13.60;99.90;;;;;;5086125;28;20090;-63
2021/09/17 06:05:47;;;;;;;;;;;13.50;99.90;;;;;;5087142;28;20052;-61
2021/09/17 06:08:13;;;;;;;93.47;48.90;;;13.60;99.90;;;;;;5087267;28;19919;-60
2021/09/17 06:10:38;;;;;;;;;;;13.70;99.90;;;;;;5086595;28;20046;-58
2021/09/17 06:13:04;;;;;;;67.38;36.85;;;13.60;99.90;;;;;;5085680;28;20294;-60
2021/09/17 06:15:30;;;;;;;;;;;13.60;99.90;;;;;;5084998;28;20032;-59
2021/09/17 06:17:55;;;;;;;60.30;33.13;;;13.60;99.90;;;;;;5087796;28;19927;-60
2021/09/17 06:20:21;;;;;;;;;;;13.70;99.90;;;;;;5087440;28;20032;-58
2021/09/17 06:22:47;;;;;;;80.35;44.90;;;13.70;99.90;;;;;;5087946;28;19916;-60
2021/09/17 06:25:15;;;;;;;;;;;13.70;99.90;;;;;;5088093;28;20120;-60
2021/09/17 06:27:42;;;;;;;59.30;32.45;;;13.70;99.90;;;;;;5087510;28;19920;-60
2021/09/17 06:30:08;;;;;;;69.75;35.28;;;13.70;99.90;;;;;;5086146;28;20040;-57
2021/09/17 06:32:33;;;;;;;;;;;13.60;99.90;;;;;;5088418;28;20105;-58
2021/09/17 06:34:59;;;;;;;57.90;29.58;;;13.70;99.90;;;;;;5087205;28;19916;-60
2021/09/17 06:37:24;;;;;;;;;;;13.60;99.90;;;;;;5088475;28;20044;-58
2021/09/17 06:39:50;;;;;;;56.83;31.10;;;13.70;99.90;;;;;;5086156;28;19919;-60
2021/09/17 06:42:15;;;;;;;;;;;13.70;99.90;;;;;;5087441;28;20036;-60
2021/09/17 06:44:41;;;;;;;53.67;29.05;;;13.80;99.90;;;;;;5089005;28;19916;-60
2021/09/17 06:47:06;;;;;;;;;;;13.70;99.90;;;;;;5092595;28;20035;-58
2021/09/17 06:49:32;;;;;;;46.10;26.35;;;13.60;99.90;;;;;;5086725;28;20581;-60
2021/09/17 06:51:57;;;;;;;;;;;13.70;99.90;;;;;;5088757;28;20122;-58
2021/09/17 06:54:23;;;;;;;48.95;26.17;;;13.80;99.90;;;;;;5096519;28;20560;-58
2021/09/17 06:56:48;;;;;;;;;;;13.80;99.90;;;;;;5094923;28;20131;-57
2021/09/17 06:59:14;;;;;;;50.60;28.23;;;13.80;99.90;;;;;;5089318;28;19916;-59
2021/09/17 07:01:39;;;;;;;;;;;13.80;99.90;;;;;;5095184;28;20048;-60
2021/09/17 07:04:05;;;;;;;44.75;25.38;;;13.80;99.90;;;;;;5088626;28;19916;-60
2021/09/17 07:06:32;;;;;;;;;;;13.80;99.90;;;;;;5088313;28;20563;-60
2021/09/17 07:08:58;;;;;;;;;;;13.80;99.90;;;;;;5085571;28;19920;-61
2021/09/17 07:11:24;;;;;;;39.80;22.83;;;13.90;99.90;;;;;;5085063;28;19985;-61
2021/09/17 07:13:50;;;;;;;;;;;14.00;99.90;;;;;;5088544;28;20558;-60
2021/09/17 07:16:16;;;;;;;52.90;28.38;;;14.10;99.90;;;;;;5087260;28;19923;-61
2021/09/17 07:18:41;;;;;;;;;;;14.00;99.90;;;;;;5086492;28;20115;-61
2021/09/17 07:21:07;;;;;;;67.47;35.72;;;14.00;99.90;;;;;;5084975;28;19923;-60
2021/09/17 07:23:33;;;;;;;50.08;26.30;;;14.00;99.90;;;;;;5087003;28;20040;-60
2021/09/17 07:25:58;;;;;;;;;;;14.10;99.90;;;;;;5087614;28;20107;-60
2021/09/17 07:28:24;;;;;;;46.92;26.85;;;14.10;99.90;;;;;;5088989;28;20442;-61
2021/09/17 07:30:50;;;;;;;;;;;14.20;99.90;;;;;;5090364;28;20040;-61
2021/09/17 07:33:15;;;;;;;44.38;25.48;;;14.20;99.90;;;;;;5090841;28;19919;-61
2021/09/17 07:35:41;;;;;;;;;;;14.20;99.90;;;;;;5091722;28;20036;-61
2021/09/17 07:38:06;;;;;;;39.33;21.58;;;14.20;99.90;;;;;;5090799;28;19969;-60
2021/09/17 07:40:32;;;;;;;;;;;14.20;99.90;;;;;;5089368;28;20036;-61
2021/09/17 07:42:58;;;;;;;35.67;20.88;;;14.40;99.90;;;;;;5090895;28;19961;-61
2021/09/17 07:45:24;;;;;;;;;;;14.40;99.90;;;;;;5090429;28;20308;-61
2021/09/17 07:47:51;;;;;;;37.35;22.27;;;14.50;99.90;;;;;;5091025;28;20331;-61
2021/09/17 07:50:17;;;;;;;35.25;21.15;;;14.40;99.90;;;;;;5089226;28;20119;-61
2021/09/17 07:52:43;;;;;;;;;;;14.40;99.90;;;;;;5090514;28;20086;-61
2021/09/17 07:55:09;;;;;;;36.42;20.77;;;14.50;99.90;;;;;;5091093;28;19916;-61
2021/09/17 07:57:35;;;;;;;35.13;20.58;;;14.50;99.90;;;;;;5089881;28;20036;-61
2021/09/17 08:00:01;;;;;;;;;;;14.60;99.90;;;;;;5089390;28;20066;-61
2021/09/17 08:02:27;;;;;;;32.88;20.73;;;14.60;99.90;;;;;;5089622;28;20658;-61
2021/09/17 08:04:52;;;;;;;;;;;14.70;99.90;;;;;;5087819;28;20058;-61
2021/09/17 08:07:18;;;;;;;30.55;18.83;;;14.70;99.90;;;;;;5089457;28;19920;-61
2021/09/17 08:09:43;;;;;;;;;;;14.70;99.90;;;;;;5089706;28;20067;-61
2021/09/17 08:12:09;;;;;;;38.67;20.73;;;14.70;99.90;;;;;;5090061;28;19915;-61
2021/09/17 08:14:34;;;;;;;;;;;14.70;99.90;;;;;;5090635;28;20117;-62
2021/09/17 08:17:00;;;;;;;33.28;18.60;;;14.80;99.90;;;;;;5090180;28;19984;-60
2021/09/17 08:19:26;;;;;;;;;;;14.70;99.90;;;;;;5090340;28;20043;-60
2021/09/17 08:21:52;;;;;;;33.67;20.02;;;14.70;99.90;;;;;;5089121;28;19920;-61
2021/09/17 08:24:17;;;;;;;;;;;14.70;99.90;;;;;;5089938;28;20055;-61
2021/09/17 08:26:49;;;;;;;32.95;18.42;;;14.80;99.90;;;;;;5089676;28;19920;-61
2021/09/17 08:29:15;;;;;;;57.00;28.67;;;14.80;99.90;;;;;;5090234;28;20055;-61
2021/09/17 08:31:41;;;;;;;38.08;20.95;;;15.00;99.90;;;;;;5081400;28;20043;-61
2021/09/17 08:34:07;;;;;;;;;;;15.10;99.90;;;;;;5090296;28;20340;-61
2021/09/17 08:36:34;;;;;;;31.83;18.77;;;15.20;99.90;;;;;;5090016;28;19927;-61
2021/09/17 08:39:00;;;;;;;31.23;17.98;;;15.20;99.90;;;;;;5092322;28;20043;-61
2021/09/17 08:41:25;;;;;;;;;;;15.20;99.90;;;;;;5088292;28;20040;-60
2021/09/17 08:43:51;;;;;;;26.58;15.32;;;15.40;99.90;;;;;;5089245;28;19920;-59
2021/09/17 08:46:18;;;;;;;25.75;15.70;;;15.50;99.90;;;;;;5089285;28;20439;-60
2021/09/17 08:48:48;;;;;;;24.30;15.70;;;15.60;99.90;;;;;;5089499;28;20058;-62
2021/09/17 08:51:14;;;;;;;27.13;15.75;;;15.60;99.90;;;;;;5087766;28;20059;-60
2021/09/17 08:53:39;;;;;;;;;;;15.50;99.90;;;;;;5090436;28;20036;-60
2021/09/17 08:56:07;;;;;;;29.40;13.80;;;15.60;99.90;;;;;;5089027;28;19957;-61
2021/09/17 08:58:34;;;;;;;21.23;13.52;;;15.50;99.90;;;;;;5091728;28;20051;-60
2021/09/17 09:00:59;;;;;;;23.42;13.10;;;15.40;99.90;;;;;;5084580;28;20040;-61
2021/09/17 09:03:32;;;;;;;;;;;15.60;99.90;;;;;;5089145;28;20124;-61
2021/09/17 09:06:12;;;;;;;26.15;13.98;;;15.80;99.90;;;;;;5088759;28;20034;-62
2021/09/17 09:08:40;;;;;;;20.88;13.13;;;15.90;99.90;;;;;;5087654;28;20040;-64
2021/09/17 09:11:16;;;;;;;22.60;12.73;;;15.90;99.90;;;;;;5088519;28;20120;-60
2021/09/17 09:14:05;;;;;;;23.95;12.82;;;15.70;99.90;;;;;;5089575;28;20040;-60
2021/09/17 09:16:31;;;;;;;25.13;13.18;;;15.60;99.90;;;;;;5089119;28;20036;-60
2021/09/17 09:18:57;;;;;;;24.00;12.77;;;15.40;99.90;;;;;;5090067;28;20443;-61
2021/09/17 09:21:29;;;;;;;;;;;15.40;99.90;;;;;;5082508;28;20050;-60
2021/09/17 09:24:08;;;;;;;20.90;11.13;;;15.40;99.90;;;;;;5087050;28;19919;-60
2021/09/17 09:26:34;;;;;;;17.85;10.07;;;15.60;99.90;;;;;;5088427;28;20083;-60
2021/09/17 09:29:00;;;;;;;;;;;15.70;99.90;;;;;;5072485;28;20119;-60
2021/09/17 09:31:26;;;;;;;16.48;9.40;;;15.80;99.90;;;;;;5082452;28;19951;-60
2021/09/17 09:33:53;;;;;;;;;;;15.90;99.90;;;;;;5087261;28;20040;-59
2021/09/17 09:36:22;;;;;;;;;;;15.90;99.90;;;;;;5085751;28;20466;-61
2021/09/17 09:38:54;;;;;;;14.15;8.10;;;15.90;99.90;;;;;;5065814;28;19924;-60
2021/09/17 09:41:21;;;;;;;12.15;7.50;;;15.90;99.90;;;;;;5084721;28;20044;-60
2021/09/17 09:44:04;;;;;;;12.07;6.38;;;16.00;99.90;;;;;;5088442;28;20484;-60
2021/09/17 09:46:32;;;;;;;9.70;6.45;;;16.20;99.90;;;;;;5088320;28;20075;-60
2021/09/17 09:49:01;;;;;;;14.00;6.65;;;16.40;99.90;;;;;;5088854;28;20076;-59
2021/09/17 09:51:28;;;;;;;8.00;5.35;;;16.10;99.90;;;;;;5085642;28;20074;-61
2021/09/17 09:53:54;;;;;;;11.77;6.80;;;16.00;99.90;;;;;;5088209;28;20058;-60
2021/09/17 09:56:20;;;;;;;;;;;15.90;99.90;;;;;;5075393;28;20044;-63
2021/09/17 09:58:50;;;;;;;12.18;6.40;;;15.90;99.90;;;;;;5083846;28;19920;-62
2021/09/17 10:01:18;;;;;;;9.95;6.60;;;15.90;99.90;;;;;;5082852;28;20036;-62
2021/09/17 10:03:45;;;;;;;11.43;5.93;;;15.90;99.90;;;;;;5082889;28;20755;-62
2021/09/17 10:06:13;;;;;;;12.38;7.00;;;15.90;99.90;;;;;;5078350;28;20126;-63
2021/09/17 10:08:40;;;;;;;14.07;6.80;;;15.80;99.90;;;;;;5085302;28;20168;-64
2021/09/17 10:11:06;;;;;;;9.85;6.07;;;15.80;99.90;;;;;;5084550;22;20041;-65
2021/09/17 10:13:32;;;;;;;8.95;5.72;;;15.70;99.90;;;;;;5054351;28;20692;-64
2021/09/17 10:15:58;;;;;;;;;;;15.80;99.90;;;;;;5046776;28;20055;-62
2021/09/17 10:18:26;;;;;;;9.00;5.68;;;15.80;99.90;;;;;;5047396;28;19927;-62
2021/09/17 10:20:52;;;;;;;9.50;5.45;;;15.90;99.90;;;;;;5044392;28;20114;-63
2021/09/17 10:23:30;;;;;;;9.00;5.47;;;16.00;99.90;;;;;;5048383;28;20568;-61
2021/09/17 10:26:04;;;;;;;9.48;6.00;;;16.20;99.90;;;;;;5048421;28;20522;-64
2021/09/17 10:28:31;;;;;;;10.75;6.88;;;16.20;99.90;;;;;;5019951;23;20033;-62
2021/09/17 10:31:16;;;;;;;11.13;7.38;;;16.20;99.90;;;;;;5041048;28;20040;-63
2021/09/17 10:33:42;;;;;;;13.50;7.50;;;16.30;99.90;;;;;;5018437;28;20033;-63
2021/09/17 10:36:07;;;;;;;;;;;16.20;99.90;;;;;;5018699;28;20116;-64
2021/09/17 10:38:34;;;;;;;11.98;7.80;;;16.10;99.90;;;;;;5013478;28;19917;-64
2021/09/17 10:41:01;;;;;;;9.23;5.90;;;16.10;99.90;;;;;;5014506;28;20117;-63
2021/09/17 10:43:41;;;;;;;10.57;5.65;;;16.20;99.90;;;;;;5020357;28;20087;-62
2021/09/17 10:46:09;;;;;;;12.57;6.45;;;16.30;99.90;;;;;;5025279;28;20041;-62
2021/09/17 10:48:41;;;;;;;7.97;5.78;;;16.40;99.90;;;;;;5026696;28;20128;-62
2021/09/17 10:51:25;;;;;;;14.48;7.32;;;16.40;99.90;;;;;;5020222;28;20037;-62
2021/09/17 10:57:11;;;;;;;8.45;5.38;;;16.30;99.90;;;;;;5947029;22;21715;-62
2021/09/17 10:59:42;;;;;;;8.57;5.32;;;16.40;99.90;;;;;;4984457;28;20053;-61
2021/09/17 11:02:08;;;;;;;10.63;5.30;;;16.30;99.90;;;;;;5010191;28;20053;-60
2021/09/17 11:04:37;;;;;;;8.88;5.28;;;16.20;99.90;;;;;;5004488;28;20042;-60
2021/09/17 11:07:27;;;;;;;7.60;4.65;;;16.20;99.90;;;;;;5005458;28;20053;-60
2021/09/17 11:09:57;;;;;;;8.18;5.13;;;16.30;99.90;;;;;;4985226;28;20043;-60
2021/09/17 11:12:31;;;;;;;8.50;5.60;;;16.30;99.90;;;;;;4992882;28;20452;-60
2021/09/17 11:15:09;;;;;;;10.40;5.50;;;16.30;99.90;;;;;;4992792;28;20070;-59
2021/09/17 11:17:45;;;;;;;7.65;5.38;;;16.40;99.90;;;;;;4994398;28;20152;-61
2021/09/17 11:20:13;;;;;;;6.85;4.35;;;16.40;99.90;;;;;;4994368;28;20666;-60
2021/09/17 11:23:00;;;;;;;6.18;4.50;;;16.50;99.90;;;;;;4994329;28;20401;-60
2021/09/17 11:25:36;;;;;;;10.77;6.18;;;16.60;99.90;;;;;;4992492;28;20121;-61
2021/09/17 11:28:06;;;;;;;8.95;5.18;;;16.50;99.90;;;;;;4989593;28;20592;-62
2021/09/17 11:30:34;;;;;;;9.98;6.47;;;16.60;99.90;;;;;;4993973;28;20081;-60
2021/09/17 11:33:13;;;;;;;12.48;5.70;;;16.40;99.90;;;;;;4987139;28;20086;-58
2021/09/17 11:35:40;;;;;;;11.50;5.45;;;16.40;99.90;;;;;;4986935;28;20042;-61
2021/09/17 11:38:05;;;;;;;9.65;5.57;;;16.30;99.90;;;;;;4985894;28;20524;-59
2021/09/17 11:40:31;;;;;;;;;;;16.30;99.90;;;;;;4987517;28;20042;-61
2021/09/17 11:42:57;;;;;;;9.50;5.57;;;16.30;99.90;;;;;;4987283;28;19976;-60
2021/09/17 11:45:24;;;;;;;7.68;5.20;;;16.30;99.90;;;;;;4987026;28;20053;-61
2021/09/17 11:47:54;;;;;;;11.93;7.88;;;16.30;99.90;;;;;;4986818;28;20529;-61
2021/09/17 11:50:26;;;;;;;13.38;7.95;;;16.30;99.90;;;;;;4986629;28;20529;-61
2021/09/17 11:52:52;;;;;;;12.70;7.97;;;16.40;99.90;;;;;;4987362;28;20054;-61
2021/09/17 11:55:20;;;;;;;11.23;7.40;;;16.40;99.90;;;;;;4986892;28;20046;-61
2021/09/17 11:57:48;;;;;;;11.13;7.40;;;16.40;99.90;;;;;;4989198;28;20046;-64
2021/09/17 12:00:20;;;;;;;15.50;10.00;;;16.50;99.90;;;;;;4989188;28;20038;-61
2021/09/17 12:02:50;;;;;;;14.23;9.05;;;16.40;99.90;;;;;;5008042;23;20228;-63
2021/09/17 12:05:18;;;;;;;17.13;10.38;;;16.40;99.90;;;;;;5026091;23;20132;-64
2021/09/17 12:07:46;;;;;;;15.70;10.70;;;16.30;99.90;;;;;;5013744;28;20153;-64
2021/09/17 12:10:14;;;;;;;19.30;10.15;;;16.20;99.90;;;;;;5005569;28;20444;-63
2021/09/17 12:12:46;;;;;;;19.98;9.70;;;16.20;99.90;;;;;;4989745;28;20084;-63
2021/09/17 12:15:13;;;;;;;12.63;8.68;;;16.20;99.90;;;;;;4989035;28;20100;-63
2021/09/17 12:18:04;;;;;;;15.98;10.10;;;16.20;99.90;;;;;;4987319;28;20082;-64
2021/09/17 12:20:41;;;;;;;15.20;9.18;;;16.20;99.90;;;;;;4989003;28;20046;-61
2021/09/17 12:23:07;;;;;;;15.55;10.07;;;16.30;99.90;;;;;;5009997;28;20047;-58
2021/09/17 12:25:32;;;;;;;;;;;16.20;99.90;;;;;;5020483;28;20112;-61
2021/09/17 12:28:04;;;;;;;13.35;9.18;;;16.20;99.90;;;;;;5013297;28;19983;-61
2021/09/17 12:30:31;;;;;;;13.60;8.30;;;16.20;99.90;;;;;;5007982;28;20038;-60
2021/09/17 12:33:12;;;;;;;13.88;9.05;;;16.30;99.90;;;;;;5008668;28;20037;-60
2021/09/17 12:35:42;;;;;;;15.95;9.05;;;16.20;99.90;;;;;;5018489;28;20516;-61
2021/09/17 12:38:09;;;;;;;15.38;8.82;;;16.20;99.90;;;;;;5010427;28;20147;-61
2021/09/17 12:40:38;;;;;;;11.63;7.75;;;16.30;99.90;;;;;;5007781;28;20045;-60
2021/09/17 12:43:23;;;;;;;16.25;9.52;;;16.40;99.90;;;;;;5008569;28;20042;-60
2021/09/17 12:46:02;;;;;;;15.05;9.77;;;16.40;99.90;;;;;;5006687;28;20149;-60
2021/09/17 12:48:30;;;;;;;14.73;8.45;;;16.40;99.90;;;;;;5008374;28;20042;-61
2021/09/17 12:50:56;;;;;;;12.93;8.27;;;16.40;99.90;;;;;;5008195;28;20038;-61
2021/09/17 12:53:22;;;;;;;;;;;16.50;99.90;;;;;;5007996;28;20527;-60
2021/09/17 12:55:59;;;;;;;12.55;9.02;;;16.50;99.90;;;;;;5007342;28;20356;-61
2021/09/17 12:58:30;;;;;;;14.88;10.05;;;16.50;99.90;;;;;;5007239;28;20049;-60
2021/09/17 13:00:56;;;;;;;10.73;7.80;;;16.50;99.90;;;;;;5017293;28;20041;-61
2021/09/17 13:03:22;;;;;;;21.33;10.82;;;16.60;99.90;;;;;;5008400;28;20096;-60
2021/09/17 13:05:51;;;;;;;;;;;16.50;99.90;;;;;;5007578;28;20038;-61
2021/09/17 13:08:17;;;;;;;14.60;9.30;;;16.50;99.90;;;;;;5022860;28;19917;-60